sensor_id;sensor_type;location;lat;lon;timestamp;P1;durP1;ratioP1;P2;durP2;ratioP2
14474;SDS011;7323;50.848;4.334;2022-11-20T00:01:59;45.27;;;30.53;;
14474;SDS011;7323;50.848;4.334;2022-11-20T00:04:24;45.37;;;30.80;;
14474;SDS011;7323;50.848;4.334;2022-11-20T00:06:50;47.97;;;31.87;;
14474;SDS011;7323;50.848;4.334;2022-11-20T00:09:15;50.97;;;31.63;;
14474;SDS011;7323;50.848;4.334;2022-11-20T00:11:42;45.00;;;29.30;;
14474;SDS011;7323;50.848;4.334;2022-11-20T00:14:13;48.00;;;31.13;;
14474;SDS011;7323;50.848;4.334;2022-11-20T00:16:43;43.60;;;29.97;;
14474;SDS011;7323;50.848;4.334;2022-11-20T00:19:11;48.47;;;30.60;;
14474;SDS011;7323;50.848;4.334;2022-11-20T00:21:40;50.70;;;30.77;;
14474;SDS011;7323;50.848;4.334;2022-11-20T00:24:08;47.53;;;30.77;;
14474;SDS011;7323;50.848;4.334;2022-11-20T00:26:38;47.60;;;29.77;;
14474;SDS011;7323;50.848;4.334;2022-11-20T00:29:05;41.23;;;29.30;;
14474;SDS011;7323;50.848;4.334;2022-11-20T00:31:42;43.83;;;27.60;;
14474;SDS011;7323;50.848;4.334;2022-11-20T00:34:09;44.17;;;28.37;;
14474;SDS011;7323;50.848;4.334;2022-11-20T00:36:37;43.80;;;27.93;;
14474;SDS011;7323;50.848;4.334;2022-11-20T00:39:02;49.53;;;29.67;;
14474;SDS011;7323;50.848;4.334;2022-11-20T00:41:28;55.00;;;29.97;;
14474;SDS011;7323;50.848;4.334;2022-11-20T00:43:56;47.60;;;30.30;;
14474;SDS011;7323;50.848;4.334;2022-11-20T00:46:24;47.60;;;30.23;;
14474;SDS011;7323;50.848;4.334;2022-11-20T00:48:52;43.93;;;30.73;;
14474;SDS011;7323;50.848;4.334;2022-11-20T00:51:20;47.60;;;29.93;;
14474;SDS011;7323;50.848;4.334;2022-11-20T00:53:48;44.97;;;31.50;;
14474;SDS011;7323;50.848;4.334;2022-11-20T00:56:17;40.83;;;29.17;;
14474;SDS011;7323;50.848;4.334;2022-11-20T00:58:44;42.87;;;29.67;;
14474;SDS011;7323;50.848;4.334;2022-11-20T01:01:14;43.67;;;29.83;;
14474;SDS011;7323;50.848;4.334;2022-11-20T01:03:41;45.03;;;30.10;;
14474;SDS011;7323;50.848;4.334;2022-11-20T01:06:18;44.37;;;29.07;;
14474;SDS011;7323;50.848;4.334;2022-11-20T01:08:47;42.73;;;29.67;;
14474;SDS011;7323;50.848;4.334;2022-11-20T01:11:16;38.23;;;27.67;;
14474;SDS011;7323;50.848;4.334;2022-11-20T01:13:48;39.10;;;28.43;;
14474;SDS011;7323;50.848;4.334;2022-11-20T01:16:23;44.60;;;29.93;;
14474;SDS011;7323;50.848;4.334;2022-11-20T01:18:52;39.23;;;28.83;;
14474;SDS011;7323;50.848;4.334;2022-11-20T01:21:24;42.97;;;29.10;;
14474;SDS011;7323;50.848;4.334;2022-11-20T01:23:58;49.37;;;31.07;;
14474;SDS011;7323;50.848;4.334;2022-11-20T01:26:30;42.00;;;29.67;;
14474;SDS011;7323;50.848;4.334;2022-11-20T01:31:32;47.77;;;30.77;;
14474;SDS011;7323;50.848;4.334;2022-11-20T01:34:01;41.73;;;29.40;;
14474;SDS011;7323;50.848;4.334;2022-11-20T01:36:29;43.80;;;32.57;;
14474;SDS011;7323;50.848;4.334;2022-11-20T01:38:57;46.00;;;31.27;;
14474;SDS011;7323;50.848;4.334;2022-11-20T01:41:26;49.60;;;33.90;;
14474;SDS011;7323;50.848;4.334;2022-11-20T01:44:12;46.07;;;30.93;;
14474;SDS011;7323;50.848;4.334;2022-11-20T01:46:41;44.43;;;31.10;;
14474;SDS011;7323;50.848;4.334;2022-11-20T01:49:24;47.47;;;31.63;;
14474;SDS011;7323;50.848;4.334;2022-11-20T01:52:01;44.33;;;31.70;;
14474;SDS011;7323;50.848;4.334;2022-11-20T01:54:52;41.80;;;30.87;;
14474;SDS011;7323;50.848;4.334;2022-11-20T01:57:23;45.43;;;32.40;;
14474;SDS011;7323;50.848;4.334;2022-11-20T01:59:53;46.40;;;30.77;;
14474;SDS011;7323;50.848;4.334;2022-11-20T02:02:26;44.93;;;32.70;;
14474;SDS011;7323;50.848;4.334;2022-11-20T02:04:53;45.53;;;32.47;;
14474;SDS011;7323;50.848;4.334;2022-11-20T02:07:22;48.80;;;32.90;;
14474;SDS011;7323;50.848;4.334;2022-11-20T02:09:49;52.43;;;33.63;;
14474;SDS011;7323;50.848;4.334;2022-11-20T02:12:16;51.30;;;32.93;;
14474;SDS011;7323;50.848;4.334;2022-11-20T02:15:01;53.43;;;34.33;;
14474;SDS011;7323;50.848;4.334;2022-11-20T02:17:27;47.93;;;32.43;;
14474;SDS011;7323;50.848;4.334;2022-11-20T02:19:59;46.43;;;31.43;;
14474;SDS011;7323;50.848;4.334;2022-11-20T02:25:47;55.33;;;32.70;;
14474;SDS011;7323;50.848;4.334;2022-11-20T02:28:18;46.47;;;30.77;;
14474;SDS011;7323;50.848;4.334;2022-11-20T02:30:46;43.00;;;30.27;;
14474;SDS011;7323;50.848;4.334;2022-11-20T02:33:19;46.80;;;31.00;;
14474;SDS011;7323;50.848;4.334;2022-11-20T02:35:46;46.50;;;31.17;;
14474;SDS011;7323;50.848;4.334;2022-11-20T02:41:35;49.37;;;32.67;;
14474;SDS011;7323;50.848;4.334;2022-11-20T02:44:02;51.37;;;33.23;;
14474;SDS011;7323;50.848;4.334;2022-11-20T02:46:31;56.20;;;33.97;;
14474;SDS011;7323;50.848;4.334;2022-11-20T02:48:59;59.73;;;34.07;;
14474;SDS011;7323;50.848;4.334;2022-11-20T02:51:30;63.07;;;34.37;;
14474;SDS011;7323;50.848;4.334;2022-11-20T02:54:06;55.00;;;33.33;;
14474;SDS011;7323;50.848;4.334;2022-11-20T02:56:50;55.40;;;32.07;;
14474;SDS011;7323;50.848;4.334;2022-11-20T02:59:17;53.67;;;32.13;;
14474;SDS011;7323;50.848;4.334;2022-11-20T03:01:44;53.93;;;30.30;;
14474;SDS011;7323;50.848;4.334;2022-11-20T03:04:10;53.73;;;31.67;;
14474;SDS011;7323;50.848;4.334;2022-11-20T03:06:35;51.33;;;32.43;;
14474;SDS011;7323;50.848;4.334;2022-11-20T03:11:31;47.37;;;28.50;;
14474;SDS011;7323;50.848;4.334;2022-11-20T03:13:56;45.60;;;29.43;;
14474;SDS011;7323;50.848;4.334;2022-11-20T03:16:26;45.57;;;28.80;;
14474;SDS011;7323;50.848;4.334;2022-11-20T03:18:52;48.83;;;30.13;;
14474;SDS011;7323;50.848;4.334;2022-11-20T03:21:19;43.57;;;29.17;;
14474;SDS011;7323;50.848;4.334;2022-11-20T03:23:48;46.30;;;29.33;;
14474;SDS011;7323;50.848;4.334;2022-11-20T03:26:17;41.40;;;28.50;;
14474;SDS011;7323;50.848;4.334;2022-11-20T03:34:11;47.03;;;28.07;;
14474;SDS011;7323;50.848;4.334;2022-11-20T03:36:40;41.03;;;27.30;;
14474;SDS011;7323;50.848;4.334;2022-11-20T03:39:09;44.93;;;29.17;;
14474;SDS011;7323;50.848;4.334;2022-11-20T03:41:36;44.30;;;26.60;;
14474;SDS011;7323;50.848;4.334;2022-11-20T03:44:04;46.30;;;26.67;;
14474;SDS011;7323;50.848;4.334;2022-11-20T03:46:32;41.03;;;25.80;;
14474;SDS011;7323;50.848;4.334;2022-11-20T03:48:58;43.67;;;25.83;;
14474;SDS011;7323;50.848;4.334;2022-11-20T03:51:28;41.40;;;26.43;;
14474;SDS011;7323;50.848;4.334;2022-11-20T03:53:56;39.17;;;25.60;;
14474;SDS011;7323;50.848;4.334;2022-11-20T03:56:25;42.80;;;26.17;;
14474;SDS011;7323;50.848;4.334;2022-11-20T03:58:56;38.33;;;26.23;;
14474;SDS011;7323;50.848;4.334;2022-11-20T04:01:29;38.20;;;25.43;;
14474;SDS011;7323;50.848;4.334;2022-11-20T04:03:57;35.43;;;24.23;;
14474;SDS011;7323;50.848;4.334;2022-11-20T04:06:24;41.10;;;27.07;;
14474;SDS011;7323;50.848;4.334;2022-11-20T04:08:59;39.27;;;25.83;;
14474;SDS011;7323;50.848;4.334;2022-11-20T04:11:26;42.80;;;24.90;;
14474;SDS011;7323;50.848;4.334;2022-11-20T04:13:54;41.90;;;26.43;;
14474;SDS011;7323;50.848;4.334;2022-11-20T04:16:28;40.97;;;26.43;;
14474;SDS011;7323;50.848;4.334;2022-11-20T04:19:09;40.90;;;25.77;;
14474;SDS011;7323;50.848;4.334;2022-11-20T04:21:44;40.80;;;25.30;;
14474;SDS011;7323;50.848;4.334;2022-11-20T04:24:12;40.70;;;25.50;;
14474;SDS011;7323;50.848;4.334;2022-11-20T04:26:40;40.27;;;26.27;;
14474;SDS011;7323;50.848;4.334;2022-11-20T04:29:12;41.50;;;27.93;;
14474;SDS011;7323;50.848;4.334;2022-11-20T04:31:39;38.93;;;26.07;;
14474;SDS011;7323;50.848;4.334;2022-11-20T04:34:06;40.93;;;26.70;;
14474;SDS011;7323;50.848;4.334;2022-11-20T04:36:33;42.20;;;26.13;;
14474;SDS011;7323;50.848;4.334;2022-11-20T04:39:02;47.07;;;27.93;;
14474;SDS011;7323;50.848;4.334;2022-11-20T04:41:48;43.50;;;28.33;;
14474;SDS011;7323;50.848;4.334;2022-11-20T04:47:41;44.20;;;27.90;;
14474;SDS011;7323;50.848;4.334;2022-11-20T04:50:07;47.37;;;28.73;;
14474;SDS011;7323;50.848;4.334;2022-11-20T04:52:49;43.77;;;27.90;;
14474;SDS011;7323;50.848;4.334;2022-11-20T04:55:14;45.80;;;27.60;;
14474;SDS011;7323;50.848;4.334;2022-11-20T04:57:40;49.37;;;30.03;;
14474;SDS011;7323;50.848;4.334;2022-11-20T05:03:23;48.07;;;27.37;;
14474;SDS011;7323;50.848;4.334;2022-11-20T05:05:49;52.47;;;29.80;;
14474;SDS011;7323;50.848;4.334;2022-11-20T05:08:31;53.27;;;30.57;;
14474;SDS011;7323;50.848;4.334;2022-11-20T05:11:12;51.00;;;30.10;;
14474;SDS011;7323;50.848;4.334;2022-11-20T05:13:40;54.27;;;30.87;;
14474;SDS011;7323;50.848;4.334;2022-11-20T05:16:11;49.50;;;29.60;;
14474;SDS011;7323;50.848;4.334;2022-11-20T05:18:42;50.73;;;30.87;;
14474;SDS011;7323;50.848;4.334;2022-11-20T05:21:08;51.07;;;29.93;;
14474;SDS011;7323;50.848;4.334;2022-11-20T05:23:34;53.90;;;31.33;;
14474;SDS011;7323;50.848;4.334;2022-11-20T05:26:01;52.63;;;31.03;;
14474;SDS011;7323;50.848;4.334;2022-11-20T05:28:28;52.70;;;30.80;;
14474;SDS011;7323;50.848;4.334;2022-11-20T05:30:55;49.17;;;29.97;;
14474;SDS011;7323;50.848;4.334;2022-11-20T05:33:21;51.17;;;29.20;;
14474;SDS011;7323;50.848;4.334;2022-11-20T05:35:47;52.07;;;30.70;;
14474;SDS011;7323;50.848;4.334;2022-11-20T05:38:13;51.33;;;30.17;;
14474;SDS011;7323;50.848;4.334;2022-11-20T05:40:39;50.90;;;30.43;;
14474;SDS011;7323;50.848;4.334;2022-11-20T05:43:05;50.00;;;29.50;;
14474;SDS011;7323;50.848;4.334;2022-11-20T05:45:31;50.43;;;29.37;;
14474;SDS011;7323;50.848;4.334;2022-11-20T05:48:00;53.43;;;30.70;;
14474;SDS011;7323;50.848;4.334;2022-11-20T05:50:27;52.17;;;30.40;;
14474;SDS011;7323;50.848;4.334;2022-11-20T05:52:58;56.73;;;31.20;;
14474;SDS011;7323;50.848;4.334;2022-11-20T05:55:24;61.83;;;31.37;;
14474;SDS011;7323;50.848;4.334;2022-11-20T05:57:53;56.03;;;30.37;;
14474;SDS011;7323;50.848;4.334;2022-11-20T06:00:36;59.17;;;31.07;;
14474;SDS011;7323;50.848;4.334;2022-11-20T06:03:04;57.10;;;30.50;;
14474;SDS011;7323;50.848;4.334;2022-11-20T06:05:33;56.07;;;31.73;;
14474;SDS011;7323;50.848;4.334;2022-11-20T06:08:02;52.27;;;30.13;;
14474;SDS011;7323;50.848;4.334;2022-11-20T06:10:40;55.10;;;30.77;;
14474;SDS011;7323;50.848;4.334;2022-11-20T06:15:34;58.77;;;32.37;;
14474;SDS011;7323;50.848;4.334;2022-11-20T06:18:01;57.60;;;30.70;;
14474;SDS011;7323;50.848;4.334;2022-11-20T06:20:26;63.87;;;34.00;;
14474;SDS011;7323;50.848;4.334;2022-11-20T06:22:52;57.50;;;31.83;;
14474;SDS011;7323;50.848;4.334;2022-11-20T06:25:17;54.83;;;30.90;;
14474;SDS011;7323;50.848;4.334;2022-11-20T06:27:43;53.20;;;30.03;;
14474;SDS011;7323;50.848;4.334;2022-11-20T06:30:09;50.60;;;30.70;;
14474;SDS011;7323;50.848;4.334;2022-11-20T06:32:36;53.47;;;29.47;;
14474;SDS011;7323;50.848;4.334;2022-11-20T06:35:04;51.53;;;29.13;;
14474;SDS011;7323;50.848;4.334;2022-11-20T06:37:29;53.40;;;30.43;;
14474;SDS011;7323;50.848;4.334;2022-11-20T06:39:55;53.20;;;30.00;;
14474;SDS011;7323;50.848;4.334;2022-11-20T06:42:21;52.80;;;29.37;;
14474;SDS011;7323;50.848;4.334;2022-11-20T06:44:46;53.67;;;30.43;;
14474;SDS011;7323;50.848;4.334;2022-11-20T06:47:12;54.83;;;30.87;;
14474;SDS011;7323;50.848;4.334;2022-11-20T06:49:38;51.90;;;30.17;;
14474;SDS011;7323;50.848;4.334;2022-11-20T06:52:03;59.83;;;30.57;;
14474;SDS011;7323;50.848;4.334;2022-11-20T06:54:30;50.43;;;29.20;;
14474;SDS011;7323;50.848;4.334;2022-11-20T06:56:59;51.40;;;28.40;;
14474;SDS011;7323;50.848;4.334;2022-11-20T06:59:28;51.37;;;28.80;;
14474;SDS011;7323;50.848;4.334;2022-11-20T07:01:53;51.03;;;28.13;;
14474;SDS011;7323;50.848;4.334;2022-11-20T07:04:20;46.97;;;29.47;;
14474;SDS011;7323;50.848;4.334;2022-11-20T07:06:46;53.47;;;29.67;;
14474;SDS011;7323;50.848;4.334;2022-11-20T07:09:13;52.00;;;27.33;;
14474;SDS011;7323;50.848;4.334;2022-11-20T07:11:41;52.80;;;27.73;;
14474;SDS011;7323;50.848;4.334;2022-11-20T07:14:06;50.10;;;28.63;;
14474;SDS011;7323;50.848;4.334;2022-11-20T07:16:33;48.70;;;28.73;;
14474;SDS011;7323;50.848;4.334;2022-11-20T07:19:04;57.83;;;28.80;;
14474;SDS011;7323;50.848;4.334;2022-11-20T07:24:26;46.07;;;27.70;;
14474;SDS011;7323;50.848;4.334;2022-11-20T07:26:54;50.17;;;29.40;;
14474;SDS011;7323;50.848;4.334;2022-11-20T07:29:20;46.73;;;28.90;;
14474;SDS011;7323;50.848;4.334;2022-11-20T07:31:46;47.67;;;28.60;;
14474;SDS011;7323;50.848;4.334;2022-11-20T07:34:12;43.70;;;27.87;;
14474;SDS011;7323;50.848;4.334;2022-11-20T07:36:38;51.33;;;29.17;;
14474;SDS011;7323;50.848;4.334;2022-11-20T07:39:04;44.63;;;27.13;;
14474;SDS011;7323;50.848;4.334;2022-11-20T07:41:30;48.97;;;27.97;;
14474;SDS011;7323;50.848;4.334;2022-11-20T07:49:16;46.20;;;27.37;;
14474;SDS011;7323;50.848;4.334;2022-11-20T07:54:41;50.17;;;27.30;;
14474;SDS011;7323;50.848;4.334;2022-11-20T07:57:20;46.13;;;25.27;;
14474;SDS011;7323;50.848;4.334;2022-11-20T07:59:54;49.47;;;26.90;;
14474;SDS011;7323;50.848;4.334;2022-11-20T08:02:22;49.23;;;27.53;;
14474;SDS011;7323;50.848;4.334;2022-11-20T08:04:54;50.03;;;26.30;;
14474;SDS011;7323;50.848;4.334;2022-11-20T08:13:59;44.53;;;25.83;;
14474;SDS011;7323;50.848;4.334;2022-11-20T08:16:45;44.60;;;24.47;;
14474;SDS011;7323;50.848;4.334;2022-11-20T08:19:14;44.40;;;25.23;;
14474;SDS011;7323;50.848;4.334;2022-11-20T08:21:42;44.00;;;24.43;;
14474;SDS011;7323;50.848;4.334;2022-11-20T08:24:14;47.27;;;25.13;;
14474;SDS011;7323;50.848;4.334;2022-11-20T08:27:04;41.60;;;24.63;;
14474;SDS011;7323;50.848;4.334;2022-11-20T08:33:02;44.07;;;25.63;;
14474;SDS011;7323;50.848;4.334;2022-11-20T08:36:04;47.30;;;24.60;;
14474;SDS011;7323;50.848;4.334;2022-11-20T08:41:44;46.33;;;24.67;;
14474;SDS011;7323;50.848;4.334;2022-11-20T08:44:39;45.87;;;25.30;;
14474;SDS011;7323;50.848;4.334;2022-11-20T08:47:05;47.27;;;25.40;;
14474;SDS011;7323;50.848;4.334;2022-11-20T08:49:41;44.00;;;25.60;;
14474;SDS011;7323;50.848;4.334;2022-11-20T08:52:18;45.33;;;25.43;;
14474;SDS011;7323;50.848;4.334;2022-11-20T08:55:11;45.67;;;26.37;;
14474;SDS011;7323;50.848;4.334;2022-11-20T08:57:37;45.27;;;25.90;;
14474;SDS011;7323;50.848;4.334;2022-11-20T09:00:04;46.37;;;25.10;;
14474;SDS011;7323;50.848;4.334;2022-11-20T09:02:34;50.10;;;25.50;;
14474;SDS011;7323;50.848;4.334;2022-11-20T09:05:02;44.20;;;25.40;;
14474;SDS011;7323;50.848;4.334;2022-11-20T09:07:44;47.83;;;26.17;;
14474;SDS011;7323;50.848;4.334;2022-11-20T09:10:11;50.87;;;25.70;;
14474;SDS011;7323;50.848;4.334;2022-11-20T09:12:42;42.97;;;25.27;;
14474;SDS011;7323;50.848;4.334;2022-11-20T09:15:18;41.67;;;24.83;;
14474;SDS011;7323;50.848;4.334;2022-11-20T09:17:51;40.23;;;24.17;;
14474;SDS011;7323;50.848;4.334;2022-11-20T09:20:47;43.33;;;23.97;;
14474;SDS011;7323;50.848;4.334;2022-11-20T09:23:30;38.73;;;23.33;;
14474;SDS011;7323;50.848;4.334;2022-11-20T09:26:06;43.93;;;23.17;;
14474;SDS011;7323;50.848;4.334;2022-11-20T09:28:40;36.33;;;21.23;;
14474;SDS011;7323;50.848;4.334;2022-11-20T09:31:31;36.10;;;22.60;;
14474;SDS011;7323;50.848;4.334;2022-11-20T09:34:14;39.13;;;23.47;;
14474;SDS011;7323;50.848;4.334;2022-11-20T09:37:20;38.47;;;22.77;;
14474;SDS011;7323;50.848;4.334;2022-11-20T09:39:49;35.63;;;23.07;;
14474;SDS011;7323;50.848;4.334;2022-11-20T09:45:10;34.87;;;22.40;;
14474;SDS011;7323;50.848;4.334;2022-11-20T09:56:36;30.40;;;20.00;;
14474;SDS011;7323;50.848;4.334;2022-11-20T09:59:26;32.13;;;19.83;;
14474;SDS011;7323;50.848;4.334;2022-11-20T10:18:19;26.97;;;16.97;;
14474;SDS011;7323;50.848;4.334;2022-11-20T10:30:11;19.17;;;10.83;;
14474;SDS011;7323;50.848;4.334;2022-11-20T10:32:39;21.93;;;10.20;;
14474;SDS011;7323;50.848;4.334;2022-11-20T10:39:01;15.03;;;9.10;;
14474;SDS011;7323;50.848;4.334;2022-11-20T10:41:45;14.13;;;9.00;;
14474;SDS011;7323;50.848;4.334;2022-11-20T10:44:28;13.13;;;7.80;;
14474;SDS011;7323;50.848;4.334;2022-11-20T10:47:34;13.43;;;7.27;;
14474;SDS011;7323;50.848;4.334;2022-11-20T10:50:04;15.33;;;7.73;;
14474;SDS011;7323;50.848;4.334;2022-11-20T10:55:27;14.83;;;7.00;;
14474;SDS011;7323;50.848;4.334;2022-11-20T10:58:10;11.40;;;6.50;;
14474;SDS011;7323;50.848;4.334;2022-11-20T11:00:36;13.67;;;6.10;;
14474;SDS011;7323;50.848;4.334;2022-11-20T11:03:02;13.40;;;6.40;;
14474;SDS011;7323;50.848;4.334;2022-11-20T11:11:07;11.53;;;5.93;;
14474;SDS011;7323;50.848;4.334;2022-11-20T11:14:08;9.40;;;4.97;;
14474;SDS011;7323;50.848;4.334;2022-11-20T11:16:48;14.57;;;5.73;;
14474;SDS011;7323;50.848;4.334;2022-11-20T11:19:16;12.50;;;5.80;;
14474;SDS011;7323;50.848;4.334;2022-11-20T11:21:49;10.50;;;5.30;;
14474;SDS011;7323;50.848;4.334;2022-11-20T11:24:25;8.17;;;5.20;;
14474;SDS011;7323;50.848;4.334;2022-11-20T11:26:59;12.57;;;5.27;;
14474;SDS011;7323;50.848;4.334;2022-11-20T11:29:35;9.47;;;4.63;;
14474;SDS011;7323;50.848;4.334;2022-11-20T11:32:10;9.83;;;5.10;;
14474;SDS011;7323;50.848;4.334;2022-11-20T11:34:38;9.73;;;4.50;;
14474;SDS011;7323;50.848;4.334;2022-11-20T11:37:03;7.30;;;4.20;;
14474;SDS011;7323;50.848;4.334;2022-11-20T11:39:43;8.70;;;4.97;;
14474;SDS011;7323;50.848;4.334;2022-11-20T11:42:18;8.70;;;4.17;;
14474;SDS011;7323;50.848;4.334;2022-11-20T11:44:45;7.43;;;4.40;;
14474;SDS011;7323;50.848;4.334;2022-11-20T11:58:24;10.87;;;4.77;;
14474;SDS011;7323;50.848;4.334;2022-11-20T12:01:31;7.70;;;4.57;;
14474;SDS011;7323;50.848;4.334;2022-11-20T12:10:05;10.83;;;3.97;;
14474;SDS011;7323;50.848;4.334;2022-11-20T12:12:42;9.77;;;3.77;;
14474;SDS011;7323;50.848;4.334;2022-11-20T12:17:57;10.73;;;3.83;;
14474;SDS011;7323;50.848;4.334;2022-11-20T12:21:28;8.93;;;3.93;;
14474;SDS011;7323;50.848;4.334;2022-11-20T12:24:01;10.93;;;4.13;;
14474;SDS011;7323;50.848;4.334;2022-11-20T12:26:45;10.17;;;4.17;;
14474;SDS011;7323;50.848;4.334;2022-11-20T13:02:34;5.67;;;3.60;;
14474;SDS011;7323;50.848;4.334;2022-11-20T13:14:50;9.80;;;3.90;;
14474;SDS011;7323;50.848;4.334;2022-11-20T13:20:27;5.73;;;3.70;;
14474;SDS011;7323;50.848;4.334;2022-11-20T13:23:26;7.67;;;3.40;;
14474;SDS011;7323;50.848;4.334;2022-11-20T13:26:06;7.13;;;3.43;;
14474;SDS011;7323;50.848;4.334;2022-11-20T13:28:47;7.27;;;4.03;;
14474;SDS011;7323;50.848;4.334;2022-11-20T13:31:36;6.40;;;3.83;;
14474;SDS011;7323;50.848;4.334;2022-11-20T13:34:09;5.70;;;3.63;;
14474;SDS011;7323;50.848;4.334;2022-11-20T13:36:53;5.50;;;3.27;;
14474;SDS011;7323;50.848;4.334;2022-11-20T13:39:34;6.90;;;2.97;;
14474;SDS011;7323;50.848;4.334;2022-11-20T13:56:24;5.27;;;2.70;;
14474;SDS011;7323;50.848;4.334;2022-11-20T14:02:29;3.33;;;2.47;;
14474;SDS011;7323;50.848;4.334;2022-11-20T14:04:57;3.47;;;2.40;;
14474;SDS011;7323;50.848;4.334;2022-11-20T14:08:00;4.57;;;3.23;;
14474;SDS011;7323;50.848;4.334;2022-11-20T14:10:26;5.23;;;2.70;;
14474;SDS011;7323;50.848;4.334;2022-11-20T14:12:55;4.87;;;2.80;;
14474;SDS011;7323;50.848;4.334;2022-11-20T14:17:50;4.53;;;2.50;;
14474;SDS011;7323;50.848;4.334;2022-11-20T14:20:18;4.87;;;2.70;;
14474;SDS011;7323;50.848;4.334;2022-11-20T14:22:52;5.60;;;2.80;;
14474;SDS011;7323;50.848;4.334;2022-11-20T14:25:23;4.67;;;2.40;;
14474;SDS011;7323;50.848;4.334;2022-11-20T14:28:02;3.37;;;2.20;;
14474;SDS011;7323;50.848;4.334;2022-11-20T14:30:42;4.97;;;2.53;;
14474;SDS011;7323;50.848;4.334;2022-11-20T14:33:18;4.37;;;2.77;;
14474;SDS011;7323;50.848;4.334;2022-11-20T14:35:49;3.87;;;2.50;;
14474;SDS011;7323;50.848;4.334;2022-11-20T14:38:17;4.47;;;2.90;;
14474;SDS011;7323;50.848;4.334;2022-11-20T14:40:48;5.03;;;2.73;;
14474;SDS011;7323;50.848;4.334;2022-11-20T14:46:05;4.47;;;2.87;;
14474;SDS011;7323;50.848;4.334;2022-11-20T14:48:49;5.90;;;3.17;;
14474;SDS011;7323;50.848;4.334;2022-11-20T14:51:28;5.40;;;2.90;;
14474;SDS011;7323;50.848;4.334;2022-11-20T14:54:18;5.17;;;3.00;;
14474;SDS011;7323;50.848;4.334;2022-11-20T14:56:58;4.77;;;3.20;;
14474;SDS011;7323;50.848;4.334;2022-11-20T14:59:25;4.40;;;3.07;;
14474;SDS011;7323;50.848;4.334;2022-11-20T15:01:59;4.40;;;2.80;;
14474;SDS011;7323;50.848;4.334;2022-11-20T15:04:29;3.80;;;2.40;;
14474;SDS011;7323;50.848;4.334;2022-11-20T15:06:57;4.33;;;2.87;;
14474;SDS011;7323;50.848;4.334;2022-11-20T15:09:25;3.43;;;2.40;;
14474;SDS011;7323;50.848;4.334;2022-11-20T15:14:30;5.07;;;2.60;;
14474;SDS011;7323;50.848;4.334;2022-11-20T15:16:59;4.17;;;2.53;;
14474;SDS011;7323;50.848;4.334;2022-11-20T15:19:29;6.70;;;3.23;;
14474;SDS011;7323;50.848;4.334;2022-11-20T15:21:55;4.73;;;3.47;;
14474;SDS011;7323;50.848;4.334;2022-11-20T15:24:34;6.37;;;3.60;;
14474;SDS011;7323;50.848;4.334;2022-11-20T15:27:15;5.83;;;3.40;;
14474;SDS011;7323;50.848;4.334;2022-11-20T15:30:17;5.17;;;3.43;;
14474;SDS011;7323;50.848;4.334;2022-11-20T15:33:08;5.10;;;4.17;;
14474;SDS011;7323;50.848;4.334;2022-11-20T15:35:36;13.97;;;4.57;;
14474;SDS011;7323;50.848;4.334;2022-11-20T15:38:03;5.73;;;3.80;;
14474;SDS011;7323;50.848;4.334;2022-11-20T15:40:32;7.73;;;4.30;;
14474;SDS011;7323;50.848;4.334;2022-11-20T15:43:03;8.70;;;4.23;;
14474;SDS011;7323;50.848;4.334;2022-11-20T15:53:58;8.13;;;4.97;;
14474;SDS011;7323;50.848;4.334;2022-11-20T15:56:30;13.37;;;6.50;;
14474;SDS011;7323;50.848;4.334;2022-11-20T15:58:58;8.20;;;4.70;;
14474;SDS011;7323;50.848;4.334;2022-11-20T16:01:38;9.87;;;4.43;;
14474;SDS011;7323;50.848;4.334;2022-11-20T16:04:05;8.07;;;4.50;;
14474;SDS011;7323;50.848;4.334;2022-11-20T16:06:40;10.27;;;5.97;;
14474;SDS011;7323;50.848;4.334;2022-11-20T16:14:26;11.03;;;4.83;;
14474;SDS011;7323;50.848;4.334;2022-11-20T16:17:21;10.40;;;4.00;;
14474;SDS011;7323;50.848;4.334;2022-11-20T16:20:10;12.67;;;4.20;;
14474;SDS011;7323;50.848;4.334;2022-11-20T16:22:58;10.90;;;4.40;;
14474;SDS011;7323;50.848;4.334;2022-11-20T16:25:27;10.93;;;3.87;;
14474;SDS011;7323;50.848;4.334;2022-11-20T16:28:08;13.03;;;4.53;;
14474;SDS011;7323;50.848;4.334;2022-11-20T16:36:13;14.17;;;4.57;;
14474;SDS011;7323;50.848;4.334;2022-11-20T16:38:51;13.10;;;4.17;;
14474;SDS011;7323;50.848;4.334;2022-11-20T16:41:24;10.00;;;4.23;;
14474;SDS011;7323;50.848;4.334;2022-11-20T16:43:58;14.50;;;4.23;;
14474;SDS011;7323;50.848;4.334;2022-11-20T16:46:29;13.37;;;4.07;;
14474;SDS011;7323;50.848;4.334;2022-11-20T16:51:50;11.40;;;3.90;;
14474;SDS011;7323;50.848;4.334;2022-11-20T16:54:22;17.73;;;5.97;;
14474;SDS011;7323;50.848;4.334;2022-11-20T16:56:48;17.70;;;4.80;;
14474;SDS011;7323;50.848;4.334;2022-11-20T16:59:47;15.57;;;5.40;;
14474;SDS011;7323;50.848;4.334;2022-11-20T17:02:32;14.33;;;4.23;;
14474;SDS011;7323;50.848;4.334;2022-11-20T17:04:59;13.70;;;4.93;;
14474;SDS011;7323;50.848;4.334;2022-11-20T17:07:38;19.77;;;6.50;;
14474;SDS011;7323;50.848;4.334;2022-11-20T17:10:13;13.80;;;5.40;;
14474;SDS011;7323;50.848;4.334;2022-11-20T17:12:51;16.10;;;5.93;;
14474;SDS011;7323;50.848;4.334;2022-11-20T17:15:39;22.00;;;6.23;;
14474;SDS011;7323;50.848;4.334;2022-11-20T17:18:17;15.33;;;6.30;;
14474;SDS011;7323;50.848;4.334;2022-11-20T17:20:50;15.10;;;5.43;;
14474;SDS011;7323;50.848;4.334;2022-11-20T17:23:17;21.27;;;6.30;;
14474;SDS011;7323;50.848;4.334;2022-11-20T17:25:49;16.27;;;5.20;;
14474;SDS011;7323;50.848;4.334;2022-11-20T17:28:15;16.40;;;5.40;;
14474;SDS011;7323;50.848;4.334;2022-11-20T17:30:47;17.03;;;5.13;;
14474;SDS011;7323;50.848;4.334;2022-11-20T17:33:14;14.67;;;4.97;;
14474;SDS011;7323;50.848;4.334;2022-11-20T17:35:40;18.63;;;5.80;;
14474;SDS011;7323;50.848;4.334;2022-11-20T17:38:05;19.10;;;5.90;;
14474;SDS011;7323;50.848;4.334;2022-11-20T17:40:32;14.40;;;4.67;;
14474;SDS011;7323;50.848;4.334;2022-11-20T17:42:58;13.63;;;4.53;;
14474;SDS011;7323;50.848;4.334;2022-11-20T17:45:26;13.33;;;3.30;;
14474;SDS011;7323;50.848;4.334;2022-11-20T17:47:51;13.10;;;3.73;;
14474;SDS011;7323;50.848;4.334;2022-11-20T17:50:18;16.17;;;5.73;;
14474;SDS011;7323;50.848;4.334;2022-11-20T17:52:46;13.20;;;5.70;;
14474;SDS011;7323;50.848;4.334;2022-11-20T17:55:13;12.83;;;4.80;;
14474;SDS011;7323;50.848;4.334;2022-11-20T17:58:25;13.47;;;5.13;;
14474;SDS011;7323;50.848;4.334;2022-11-20T18:00:57;13.33;;;4.50;;
14474;SDS011;7323;50.848;4.334;2022-11-20T18:03:38;11.87;;;3.80;;
14474;SDS011;7323;50.848;4.334;2022-11-20T18:06:11;6.77;;;2.93;;
14474;SDS011;7323;50.848;4.334;2022-11-20T18:08:38;10.97;;;4.00;;
14474;SDS011;7323;50.848;4.334;2022-11-20T18:11:23;13.57;;;4.53;;
14474;SDS011;7323;50.848;4.334;2022-11-20T18:13:51;14.47;;;4.83;;
14474;SDS011;7323;50.848;4.334;2022-11-20T18:16:40;14.63;;;6.47;;
14474;SDS011;7323;50.848;4.334;2022-11-20T18:19:24;15.13;;;5.83;;
14474;SDS011;7323;50.848;4.334;2022-11-20T18:24:26;15.67;;;5.33;;
14474;SDS011;7323;50.848;4.334;2022-11-20T18:27:05;16.50;;;5.83;;
14474;SDS011;7323;50.848;4.334;2022-11-20T18:29:44;15.63;;;5.70;;
14474;SDS011;7323;50.848;4.334;2022-11-20T18:32:14;22.47;;;5.73;;
14474;SDS011;7323;50.848;4.334;2022-11-20T18:34:46;18.73;;;6.67;;
14474;SDS011;7323;50.848;4.334;2022-11-20T18:37:14;17.13;;;5.57;;
14474;SDS011;7323;50.848;4.334;2022-11-20T18:39:42;18.60;;;5.73;;
14474;SDS011;7323;50.848;4.334;2022-11-20T18:42:13;17.00;;;5.13;;
14474;SDS011;7323;50.848;4.334;2022-11-20T18:44:58;17.37;;;6.67;;
14474;SDS011;7323;50.848;4.334;2022-11-20T18:47:27;16.43;;;5.27;;
14474;SDS011;7323;50.848;4.334;2022-11-20T18:49:56;20.10;;;5.73;;
14474;SDS011;7323;50.848;4.334;2022-11-20T18:52:27;16.67;;;6.17;;